createdAt,value
2022-10-03T00:02:20.084Z,12.11
2022-10-03T00:05:22.576Z,12.09
2022-10-03T00:08:06.249Z,12.07
2022-10-03T00:11:38.098Z,12.06
2022-10-03T00:14:27.006Z,12.05
2022-10-03T00:17:12.402Z,12.03
2022-10-03T00:19:52.119Z,12.01
2022-10-03T00:22:52.877Z,11.99
2022-10-03T00:26:28.399Z,11.98
2022-10-03T00:29:18.935Z,11.97
2022-10-03T00:32:05.826Z,11.96
2022-10-03T00:34:58.891Z,11.95
2022-10-03T00:38:03.835Z,11.95
2022-10-03T00:40:58.241Z,11.94
2022-10-03T00:44:12.734Z,11.95
2022-10-03T00:46:55.669Z,11.95
2022-10-03T00:49:57.673Z,11.93
2022-10-03T00:52:51.557Z,11.93
2022-10-03T00:55:50.574Z,11.93
2022-10-03T00:58:48.695Z,11.92
2022-10-03T01:01:27.699Z,11.91
2022-10-03T01:04:21.804Z,11.89
2022-10-03T01:07:45.195Z,11.86
2022-10-03T01:10:22.802Z,11.86
2022-10-03T01:13:28.882Z,11.83
2022-10-03T01:16:10.759Z,11.83
2022-10-03T01:19:02.060Z,11.79
2022-10-03T01:21:57.937Z,11.79
2022-10-03T01:25:19.657Z,11.77
2022-10-03T01:28:20.753Z,11.76
2022-10-03T01:30:56.646Z,11.74
2022-10-03T01:33:48.232Z,11.72
2022-10-03T01:36:49.794Z,11.69
2022-10-03T01:39:50.823Z,11.68
2022-10-03T01:42:44.208Z,11.66
2022-10-03T01:45:52.822Z,11.64
2022-10-03T01:48:45.411Z,11.61
2022-10-03T01:51:56.574Z,11.61
2022-10-03T01:54:35.863Z,11.60
2022-10-03T01:57:30.102Z,11.58
2022-10-03T02:00:17.633Z,11.57
2022-10-03T02:03:17.165Z,11.58
2022-10-03T02:06:32.760Z,11.57
2022-10-03T02:09:16.546Z,11.56
2022-10-03T02:12:13.721Z,11.55
2022-10-03T02:14:54.715Z,11.55
2022-10-03T02:17:27.105Z,11.55
2022-10-03T02:20:36.229Z,11.53
2022-10-03T02:23:33.866Z,11.52
2022-10-03T02:26:21.028Z,11.52
2022-10-03T02:29:21.840Z,11.52
2022-10-03T02:32:23.929Z,11.50
2022-10-03T02:35:14.961Z,11.49
2022-10-03T02:38:09.990Z,11.47
2022-10-03T02:41:32.573Z,11.46
2022-10-03T02:44:40.318Z,11.44
2022-10-03T02:47:34.573Z,11.42
2022-10-03T02:50:52.593Z,11.40
2022-10-03T02:54:12.778Z,11.36
2022-10-03T02:56:56.438Z,11.34
2022-10-03T02:59:48.885Z,11.30
2022-10-03T03:02:48.299Z,11.27
2022-10-03T03:06:03.671Z,11.25
2022-10-03T03:09:08.488Z,11.21
2022-10-03T03:12:06.296Z,11.19
2022-10-03T03:15:20.568Z,11.17
2022-10-03T03:18:11.195Z,11.17
2022-10-03T03:21:15.590Z,11.17
2022-10-03T03:24:07.035Z,11.18
2022-10-03T03:27:22.228Z,11.17
2022-10-03T03:30:19.290Z,11.16
2022-10-03T03:33:33.120Z,11.14
2022-10-03T03:36:39.966Z,11.11
2022-10-03T03:39:24.835Z,11.08
2022-10-03T03:42:38.172Z,11.04
2022-10-03T03:45:16.805Z,11.01
2022-10-03T03:48:01.439Z,10.97
2022-10-03T03:50:58.072Z,10.93
2022-10-03T03:54:09.780Z,10.88
2022-10-03T03:56:42.469Z,10.86
2022-10-03T03:59:39.030Z,10.82
2022-10-03T04:02:29.309Z,10.79
2022-10-03T04:05:11.901Z,10.75
2022-10-03T04:08:34.715Z,10.70
2022-10-03T04:11:13.729Z,10.68
2022-10-03T04:14:27.944Z,10.63
2022-10-03T04:17:26.335Z,10.63
2022-10-03T04:20:21.127Z,10.58
2022-10-03T04:22:57.949Z,10.53
2022-10-03T04:25:34.770Z,10.51
2022-10-03T04:28:26.642Z,10.49
2022-10-03T04:31:24.499Z,10.43
2022-10-03T04:34:15.744Z,10.39
2022-10-03T04:37:28.623Z,10.36
2022-10-03T04:40:49.249Z,10.32
2022-10-03T04:43:44.936Z,10.27
2022-10-03T04:46:46.735Z,10.25
2022-10-03T04:49:30.854Z,10.23
2022-10-03T04:52:21.458Z,10.22
2022-10-03T04:55:10.047Z,10.22
2022-10-03T04:58:26.707Z,10.20
2022-10-03T05:01:22.362Z,10.21
2022-10-03T05:04:26.134Z,10.22
2022-10-03T05:07:13.473Z,10.21
2022-10-03T05:09:54.810Z,10.21
2022-10-03T05:13:05.200Z,10.21
2022-10-03T05:16:02.196Z,10.22
2022-10-03T05:19:06.028Z,10.22
2022-10-03T05:21:42.686Z,10.22
2022-10-03T05:24:37.091Z,10.22
2022-10-03T05:27:24.872Z,10.23
2022-10-03T05:30:39.404Z,10.22
2022-10-03T05:33:20.248Z,10.23
2022-10-03T05:36:23.606Z,10.23
2022-10-03T05:39:23.642Z,10.23
2022-10-03T05:42:35.098Z,10.23
2022-10-03T05:45:08.861Z,10.24
2022-10-03T05:48:23.397Z,10.22
2022-10-03T05:51:21.874Z,10.23
2022-10-03T05:54:31.965Z,10.22
2022-10-03T05:57:26.024Z,10.22
2022-10-03T06:00:21.610Z,10.23
2022-10-03T06:03:10.429Z,10.23
2022-10-03T06:06:26.387Z,10.24
2022-10-03T06:09:35.636Z,10.25
2022-10-03T06:12:38.155Z,10.25
2022-10-03T06:15:21.368Z,10.26
2022-10-03T06:18:01.132Z,10.28
2022-10-03T06:21:16.615Z,10.28
2022-10-03T06:24:08.441Z,10.28
2022-10-03T06:27:17.243Z,10.29
2022-10-03T06:30:22.058Z,10.31
2022-10-03T06:33:13.861Z,10.33
2022-10-03T06:36:18.343Z,10.35
2022-10-03T06:39:54.910Z,10.38
2022-10-03T06:42:42.762Z,10.39
2022-10-03T06:45:39.847Z,10.42
2022-10-03T06:49:07.775Z,10.44
2022-10-03T06:52:41.811Z,10.47
2022-10-03T06:55:34.868Z,10.48
2022-10-03T06:58:23.350Z,10.51
2022-10-03T07:01:12.097Z,10.54
2022-10-03T07:04:06.805Z,10.57
2022-10-03T07:07:14.502Z,10.61
2022-10-03T07:10:46.104Z,10.63
2022-10-03T07:13:44.314Z,10.67
2022-10-03T07:17:04.823Z,10.68
2022-10-03T07:20:21.983Z,10.72
2022-10-03T07:23:33.166Z,10.76
2022-10-03T07:26:34.295Z,10.80
2022-10-03T07:29:49.012Z,10.81
2022-10-03T07:33:07.011Z,10.88
2022-10-03T07:36:33.446Z,10.91
2022-10-03T07:39:34.252Z,10.98
2022-10-03T07:42:44.706Z,11.06
2022-10-03T07:45:45.290Z,11.16
2022-10-03T07:48:43.566Z,11.26
2022-10-03T07:51:24.364Z,11.35
2022-10-03T07:54:19.228Z,11.44
2022-10-03T07:57:31.998Z,11.50
2022-10-03T08:00:22.968Z,11.56
2022-10-03T08:03:25.265Z,11.60
2022-10-03T08:06:24.564Z,11.63
2022-10-03T08:09:24.785Z,11.65
2022-10-03T08:12:01.014Z,11.65
2022-10-03T08:14:58.181Z,11.64
2022-10-03T08:17:43.822Z,11.65
2022-10-03T08:20:32.151Z,11.63
2022-10-03T08:23:25.783Z,11.63
2022-10-03T08:26:22.880Z,11.63
2022-10-03T08:29:29.631Z,11.62
2022-10-03T08:32:39.238Z,11.63
2022-10-03T08:36:06.771Z,11.69
2022-10-03T08:38:57.276Z,11.77
2022-10-03T08:42:08.427Z,11.84
2022-10-03T08:45:02.746Z,11.94
2022-10-03T08:48:10.769Z,12.00
2022-10-03T08:50:50.766Z,12.04
2022-10-03T08:53:50.672Z,12.03
2022-10-03T08:57:00.271Z,12.03
2022-10-03T09:00:04.366Z,12.03
2022-10-03T09:06:28.099Z,12.00
2022-10-03T09:09:06.683Z,12.02
2022-10-03T09:11:42.046Z,12.06
2022-10-03T09:14:36.354Z,12.12
2022-10-03T09:17:15.675Z,12.18
2022-10-03T09:19:56.900Z,12.24
2022-10-03T09:23:02.183Z,12.30
2022-10-03T09:25:47.497Z,12.37
2022-10-03T09:29:07.667Z,12.43
2022-10-03T09:32:28.424Z,12.50
2022-10-03T09:35:48.595Z,12.53
2022-10-03T09:39:01.171Z,12.57
2022-10-03T09:41:50.472Z,12.58
2022-10-03T09:44:41.955Z,12.59
2022-10-03T09:47:36.083Z,12.60
2022-10-03T09:50:54.022Z,12.61
2022-10-03T09:54:16.548Z,12.65
2022-10-03T09:57:05.619Z,12.67
2022-10-03T09:59:52.977Z,12.69
2022-10-03T10:02:44.680Z,12.73
2022-10-03T10:05:36.692Z,12.77
2022-10-03T10:08:52.674Z,12.79
2022-10-03T10:11:37.643Z,12.82
2022-10-03T10:14:47.715Z,12.87
2022-10-03T10:17:44.968Z,12.90
2022-10-03T10:21:03.095Z,12.91
2022-10-03T10:24:14.890Z,12.97
2022-10-03T10:27:00.087Z,13.07
2022-10-03T10:29:55.944Z,13.21
2022-10-03T10:32:56.910Z,13.31
2022-10-03T10:36:08.435Z,13.42
2022-10-03T10:39:14.025Z,13.56
2022-10-03T10:42:25.490Z,13.66
2022-10-03T10:45:49.283Z,13.71
2022-10-03T10:49:13.255Z,13.73
2022-10-03T10:52:04.645Z,13.79
2022-10-03T10:54:56.946Z,13.82
2022-10-03T10:58:01.798Z,13.88
2022-10-03T11:01:07.469Z,13.90
2022-10-03T11:04:25.280Z,13.90
2022-10-03T11:07:19.641Z,13.89
2022-10-03T11:10:01.652Z,13.88
2022-10-03T11:13:08.535Z,13.83
2022-10-03T11:16:16.226Z,13.77
2022-10-03T11:19:13.843Z,13.73
2022-10-03T11:22:18.114Z,13.75
2022-10-03T11:25:13.050Z,13.78
2022-10-03T11:28:32.567Z,13.89
2022-10-03T11:31:28.001Z,14.03
2022-10-03T11:34:19.020Z,14.09
2022-10-03T11:37:05.142Z,14.16
2022-10-03T11:39:46.070Z,14.12
2022-10-03T11:42:59.443Z,14.11
2022-10-03T11:45:58.145Z,14.06
2022-10-03T11:48:40.458Z,14.08
2022-10-03T11:51:37.432Z,14.07
2022-10-03T11:54:37.439Z,14.08
2022-10-03T11:57:28.294Z,14.07
2022-10-03T12:00:14.123Z,14.04
2022-10-03T12:03:04.456Z,14.01
2022-10-03T12:06:15.402Z,14.02
2022-10-03T12:09:04.005Z,14.04
2022-10-03T12:11:41.728Z,14.12
2022-10-03T12:14:30.426Z,14.24
2022-10-03T12:17:01.290Z,14.33
2022-10-03T12:19:33.714Z,14.44
2022-10-03T12:22:33.025Z,14.51
2022-10-03T12:25:24.510Z,14.61
2022-10-03T12:28:21.238Z,14.73
2022-10-03T12:30:56.934Z,14.81
2022-10-03T12:33:52.616Z,14.95
2022-10-03T12:36:57.862Z,15.03
2022-10-03T12:40:05.617Z,15.14
2022-10-03T12:42:49.249Z,15.24
2022-10-03T12:45:30.119Z,15.29
2022-10-03T12:48:11.954Z,15.43
2022-10-03T12:50:59.447Z,15.35
2022-10-03T12:54:15.840Z,15.45
2022-10-03T12:56:50.095Z,15.51
2022-10-03T12:59:44.859Z,15.54
2022-10-03T13:02:35.565Z,15.59
2022-10-03T13:05:36.157Z,15.66
2022-10-03T13:08:28.095Z,15.65
2022-10-03T13:11:25.832Z,15.65
2022-10-03T13:14:26.832Z,15.67
2022-10-03T13:17:13.069Z,15.69
2022-10-03T13:19:59.692Z,15.72
2022-10-03T13:22:56.097Z,15.77
2022-10-03T13:25:38.990Z,15.80
2022-10-03T13:28:10.923Z,15.79
2022-10-03T13:30:57.424Z,15.83
2022-10-03T13:33:29.672Z,15.79
2022-10-03T13:36:44.703Z,15.78
2022-10-03T13:39:35.510Z,15.74
2022-10-03T13:42:28.720Z,15.65
2022-10-03T13:45:04.094Z,15.61
2022-10-03T13:47:59.065Z,15.59
2022-10-03T13:51:02.287Z,15.56
2022-10-03T13:54:11.643Z,15.56
2022-10-03T13:57:15.376Z,15.57
2022-10-03T14:00:15.033Z,15.58
2022-10-03T14:02:59.777Z,15.57
2022-10-03T14:06:30.257Z,15.59
2022-10-03T14:09:49.592Z,15.59
2022-10-03T14:12:55.864Z,15.52
2022-10-03T14:15:58.205Z,15.47
2022-10-03T14:19:02.854Z,15.43
2022-10-03T14:22:14.863Z,15.50
2022-10-03T14:25:18.406Z,15.56
2022-10-03T14:28:08.207Z,15.60
2022-10-03T14:31:16.598Z,15.64
2022-10-03T14:34:17.753Z,15.66
2022-10-03T14:37:02.848Z,15.68
2022-10-03T14:39:43.114Z,15.68
2022-10-03T14:43:14.490Z,15.69
2022-10-03T14:45:48.238Z,15.65
2022-10-03T14:48:24.729Z,15.64
2022-10-03T14:51:04.259Z,15.63
2022-10-03T14:53:31.462Z,15.65
2022-10-03T14:56:09.759Z,15.65
2022-10-03T14:58:45.846Z,15.67
2022-10-03T15:01:23.675Z,15.65
2022-10-03T15:04:15.568Z,15.62
2022-10-03T15:06:45.410Z,15.57
2022-10-03T15:09:18.257Z,15.56
2022-10-03T15:11:52.910Z,15.54
2022-10-03T15:14:24.275Z,15.56
2022-10-03T15:16:56.059Z,15.58
2022-10-03T15:19:44.046Z,15.59
2022-10-03T15:22:32.729Z,15.61
2022-10-03T15:25:14.467Z,15.61
2022-10-03T15:27:45.170Z,15.61
2022-10-03T15:30:33.496Z,15.62
2022-10-03T15:33:31.226Z,15.57
2022-10-03T15:36:22.710Z,15.52
2022-10-03T15:38:54.916Z,15.46
2022-10-03T15:41:48.178Z,15.43
2022-10-03T15:44:24.000Z,15.38
2022-10-03T15:47:01.638Z,15.35
2022-10-03T15:49:36.632Z,15.33
2022-10-03T15:52:21.250Z,15.31
2022-10-03T15:55:06.704Z,15.29
2022-10-03T15:57:45.615Z,15.26
2022-10-03T16:00:26.141Z,15.23
2022-10-03T16:03:08.534Z,15.21
2022-10-03T16:05:37.530Z,15.19
2022-10-03T16:08:14.609Z,15.16
2022-10-03T16:11:14.091Z,15.13
2022-10-03T16:13:49.140Z,15.09
2022-10-03T16:16:22.386Z,15.06
2022-10-03T16:18:58.194Z,15.02
2022-10-03T16:22:07.117Z,14.99
2022-10-03T16:25:15.972Z,14.96
2022-10-03T16:28:12.461Z,14.91
2022-10-03T16:30:52.302Z,14.88
2022-10-03T16:33:40.435Z,14.85
2022-10-03T16:36:10.346Z,14.79
2022-10-03T16:38:52.380Z,14.73
2022-10-03T16:41:34.980Z,14.66
2022-10-03T16:44:11.463Z,14.60
2022-10-03T16:46:43.158Z,14.54
2022-10-03T16:49:47.859Z,14.46
2022-10-03T16:52:18.893Z,14.36
2022-10-03T16:54:47.162Z,14.29
2022-10-03T16:57:29.337Z,14.22
2022-10-03T16:59:56.976Z,14.15
2022-10-03T17:02:29.317Z,14.05
2022-10-03T17:05:09.685Z,13.97
2022-10-03T17:08:36.802Z,13.89
2022-10-03T17:10:58.554Z,13.80
2022-10-03T17:13:51.977Z,13.74
2022-10-03T17:16:33.899Z,13.68
2022-10-03T17:19:26.294Z,13.64
2022-10-03T17:22:05.373Z,13.59
2022-10-03T17:24:53.025Z,13.54
2022-10-03T17:27:32.055Z,13.50
2022-10-03T17:30:04.070Z,13.47
2022-10-03T17:32:42.123Z,13.43
2022-10-03T17:35:15.468Z,13.39
2022-10-03T17:38:48.483Z,13.34
2022-10-03T17:41:29.077Z,13.27
2022-10-03T17:44:18.274Z,13.22
2022-10-03T17:47:26.202Z,13.14
2022-10-03T17:50:37.623Z,13.05
2022-10-03T17:53:04.965Z,12.99
2022-10-03T17:55:41.493Z,12.93
2022-10-03T17:58:17.880Z,12.88
2022-10-03T18:00:44.799Z,12.82
2022-10-03T18:03:24.014Z,12.77
2022-10-03T18:05:57.919Z,12.72
2022-10-03T18:08:36.080Z,12.68
2022-10-03T18:11:06.791Z,12.64
2022-10-03T18:13:43.996Z,12.60
2022-10-03T18:16:19.719Z,12.57
2022-10-03T18:18:49.404Z,12.53
2022-10-03T18:21:46.359Z,12.50
2022-10-03T18:24:31.718Z,12.47
2022-10-03T18:27:31.983Z,12.46
2022-10-03T18:30:22.330Z,12.42
2022-10-03T18:32:51.989Z,12.43
2022-10-03T18:35:26.646Z,12.42
2022-10-03T18:38:23.588Z,12.40
2022-10-03T18:40:59.869Z,12.40
2022-10-03T18:44:01.891Z,12.39
2022-10-03T18:46:39.606Z,12.41
2022-10-03T18:49:33.977Z,12.42
2022-10-03T18:52:24.166Z,12.42
2022-10-03T18:55:36.823Z,12.42
2022-10-03T18:58:29.273Z,12.42
2022-10-03T19:01:32.454Z,12.43
2022-10-03T19:04:08.394Z,12.43
2022-10-03T19:06:44.590Z,12.43
2022-10-03T19:09:22.796Z,12.42
2022-10-03T19:12:15.387Z,12.42
2022-10-03T19:15:21.163Z,12.41
2022-10-03T19:18:26.148Z,12.41
2022-10-03T19:21:00.074Z,12.43
2022-10-03T19:23:36.633Z,12.42
2022-10-03T19:26:35.535Z,12.43
2022-10-03T19:29:33.823Z,12.41
2022-10-03T19:32:27.234Z,12.41
2022-10-03T19:34:58.788Z,12.41
2022-10-03T19:37:25.597Z,12.40
2022-10-03T19:39:52.943Z,12.38
2022-10-03T19:42:39.113Z,12.36
2022-10-03T19:45:13.616Z,12.35
2022-10-03T19:47:57.354Z,12.33
2022-10-03T19:50:35.394Z,12.31
2022-10-03T19:53:14.999Z,12.28
2022-10-03T19:55:44.181Z,12.27
2022-10-03T19:58:24.339Z,12.25
2022-10-03T20:01:00.218Z,12.22
2022-10-03T20:03:45.969Z,12.20
2022-10-03T20:06:40.474Z,12.18
2022-10-03T20:09:28.145Z,12.18
2022-10-03T20:12:04.290Z,12.16
2022-10-03T20:14:41.707Z,12.15
2022-10-03T20:17:21.396Z,12.14
2022-10-03T20:20:12.068Z,12.12
2022-10-03T20:22:39.135Z,12.12
2022-10-03T20:25:20.354Z,12.10
2022-10-03T20:27:53.844Z,12.08
2022-10-03T20:30:53.173Z,12.05
2022-10-03T20:33:34.689Z,12.03
2022-10-03T20:36:23.837Z,12.03
2022-10-03T20:39:14.723Z,12.00
2022-10-03T20:42:04.908Z,11.99
2022-10-03T20:44:55.094Z,11.98
2022-10-03T20:48:02.311Z,11.95
2022-10-03T20:50:41.069Z,11.96
2022-10-03T20:53:17.364Z,11.93
2022-10-03T20:55:55.582Z,11.91
2022-10-03T20:58:39.511Z,11.89
2022-10-03T21:01:15.795Z,11.87
2022-10-03T21:04:24.582Z,11.84
2022-10-03T21:07:08.941Z,11.82
2022-10-03T21:10:19.672Z,11.80
2022-10-03T21:13:00.406Z,11.78
2022-10-03T21:15:59.519Z,11.76
2022-10-03T21:18:40.926Z,11.73
2022-10-03T21:21:32.989Z,11.70
2022-10-03T21:24:12.763Z,11.70
2022-10-03T21:27:09.242Z,11.66
2022-10-03T21:29:55.295Z,11.67
2022-10-03T21:32:39.275Z,11.65
2022-10-03T21:35:27.609Z,11.63
2022-10-03T21:38:15.787Z,11.62
2022-10-03T21:40:55.077Z,11.61
2022-10-03T21:43:43.446Z,11.58
2022-10-03T21:46:44.763Z,11.56
2022-10-03T21:49:54.924Z,11.54
2022-10-03T21:53:09.191Z,11.50
2022-10-03T21:56:24.709Z,11.47
2022-10-03T21:59:14.742Z,11.43
2022-10-03T22:02:13.780Z,11.41
2022-10-03T22:04:59.199Z,11.37
2022-10-03T22:07:37.639Z,11.35
2022-10-03T22:10:21.646Z,11.34
2022-10-03T22:12:55.351Z,11.34
2022-10-03T22:16:00.680Z,11.31
2022-10-03T22:18:41.924Z,11.30
2022-10-03T22:21:26.073Z,11.28
2022-10-03T22:25:15.100Z,11.26
2022-10-03T22:28:12.417Z,11.25
2022-10-03T22:30:53.698Z,11.23
2022-10-03T22:33:54.755Z,11.19
2022-10-03T22:36:22.091Z,11.20
2022-10-03T22:38:51.453Z,11.19
2022-10-03T22:41:26.846Z,11.18
2022-10-03T22:43:55.898Z,11.18
2022-10-03T22:46:28.654Z,11.16
2022-10-03T22:49:08.203Z,11.15
2022-10-03T22:51:35.906Z,11.15
2022-10-03T22:54:12.863Z,11.13
2022-10-03T22:56:52.695Z,11.10
2022-10-03T22:59:28.815Z,11.09
2022-10-03T23:02:01.755Z,11.08
2022-10-03T23:05:09.615Z,11.07
2022-10-03T23:07:54.910Z,11.06
2022-10-03T23:10:45.152Z,11.03
2022-10-03T23:13:19.799Z,11.02
2022-10-03T23:15:54.516Z,10.99
2022-10-03T23:18:58.777Z,10.97
2022-10-03T23:21:26.419Z,10.95
2022-10-03T23:24:27.902Z,10.92
2022-10-03T23:27:32.890Z,10.89
2022-10-03T23:30:11.928Z,10.87
2022-10-03T23:32:47.867Z,10.86
2022-10-03T23:35:19.576Z,10.84
2022-10-03T23:37:48.693Z,10.83
2022-10-03T23:40:47.018Z,10.80
2022-10-03T23:43:41.663Z,10.76
2022-10-03T23:46:17.099Z,10.74
2022-10-03T23:48:53.430Z,10.71
2022-10-03T23:51:27.179Z,10.70
2022-10-03T23:54:03.773Z,10.67
2022-10-03T23:56:44.427Z,10.63
2022-10-03T23:59:14.309Z,10.62
